Time;durP1;ratioP1;P1;durP2;ratioP2;P2;SDS_P1;SDS_P2;PMS_P1;PMS_P2;Temp;Humidity;BMP_temperature;BMP_pressure;BME280_temperature;BME280_humidity;BME280_pressure;Samples;Min_cycle;Max_cycle;Signal;HPM_P1;HPM_P2
2023/01/06 00:01:21;;;;;;;;;;;;;;;8.60;100.00;100719.78;5567696;32;34522;-70
2023/01/06 00:04:25;;;;;;;;;;;;;;;8.47;100.00;100716.66;5568143;32;34292;-70
2023/01/06 00:07:29;;;;;;;;;;;;;;;8.52;100.00;100724.97;5567002;32;33745;-70
2023/01/06 00:10:36;;;;;;;;;;;;;;;8.42;100.00;100727.66;5567085;32;34374;-70
2023/01/06 00:13:44;;;;;;;;;;;;;;;8.27;100.00;100721.16;5566867;32;33295;-70
2023/01/06 00:16:52;;;;;;;;;;;;;;;8.31;100.00;100714.63;5554564;32;33121;-70
2023/01/06 00:19:58;;;;;;;;;;;;;;;8.26;100.00;100711.56;5567143;32;33191;-70
2023/01/06 00:23:06;;;;;;;;;;;;;;;8.23;100.00;100722.38;5568038;32;34746;-70
2023/01/06 00:26:12;;;;;;;;;;;;;;;8.05;100.00;100732.06;5567130;32;34336;-70
2023/01/06 00:29:19;;;;;;;;;;;;;;;8.06;100.00;100742.47;5566996;32;35262;-70
2023/01/06 00:32:28;;;;;;;;;;;;;;;8.06;100.00;100747.78;5567093;32;34566;-70
2023/01/06 00:35:36;;;;;;;;;;;;;;;8.25;100.00;100753.00;5567916;32;34236;-71
2023/01/06 00:38:44;;;;;;;;;;;;;;;8.30;100.00;100768.47;5567910;32;33351;-73
2023/01/06 00:42:04;;;;;;;;;;;;;;;8.23;100.00;100759.41;5567026;32;34176;-70
2023/01/06 00:45:10;;;;;;;;;;;;;;;8.19;100.00;100761.50;5567762;32;35098;-70
2023/01/06 00:48:18;;;;;;;;;;;;;;;8.20;100.00;100765.81;5567694;32;34076;-69
2023/01/06 00:51:26;;;;;;;;;;;;;;;8.05;100.00;100769.88;5567752;32;34044;-70
2023/01/06 00:54:36;;;;;;;;;;;;;;;7.90;100.00;100773.94;5567657;32;34537;-70
2023/01/06 00:57:46;;;;;;;;;;;;;;;7.92;100.00;100772.00;5567659;32;34146;-70
2023/01/06 01:00:54;;;;;;;;;;;;;;;8.01;100.00;100796.72;5567634;32;34824;-70
2023/01/06 01:04:05;;;;;;;;;;;;;;;8.06;100.00;100803.25;5566768;32;34248;-70
2023/01/06 01:07:12;;;;;;;;;;;;;;;7.85;100.00;100802.56;5566758;32;34163;-70
2023/01/06 01:10:19;;;;;;;;;;;;;;;8.02;100.00;100803.69;5566697;32;34662;-70
2023/01/06 01:13:27;;;;;;;;;;;;;;;7.96;100.00;100806.87;5566173;32;32924;-70
2023/01/06 01:16:40;;;;;;;;;;;;;;;7.97;100.00;100814.69;5566412;32;34773;-70
2023/01/06 01:19:51;;;;;;;;;;;;;;;7.89;100.00;100814.53;5567505;32;33959;-70
2023/01/06 01:23:01;;;;;;;;;;;;;;;7.89;100.00;100824.28;5566416;32;34831;-70
2023/01/06 01:26:10;;;;;;;;;;;;;;;7.80;100.00;100824.13;5567340;32;34241;-70
2023/01/06 01:29:18;;;;;;;;;;;;;;;7.63;100.00;100834.56;5566039;32;33356;-70
2023/01/06 01:32:28;;;;;;;;;;;;;;;7.71;100.00;100829.41;5566405;32;34974;-70
2023/01/06 01:35:37;;;;;;;;;;;;;;;7.80;100.00;100818.00;5567223;32;34553;-69
2023/01/06 01:38:44;;;;;;;;;;;;;;;7.78;100.00;100831.38;5566255;32;34149;-69
2023/01/06 01:41:55;;;;;;;;;;;;;;;7.87;100.00;100825.25;5566063;32;34954;-69
2023/01/06 01:45:20;;;;;;;;;;;;;;;7.75;100.00;100826.34;5554376;32;34307;-69
2023/01/06 01:48:35;;;;;;;;;;;;;;;7.79;100.00;100835.66;5566076;32;34109;-70
2023/01/06 01:51:46;;;;;;;;;;;;;;;7.76;100.00;100840.37;5566939;32;34305;-69
2023/01/06 01:54:55;;;;;;;;;;;;;;;7.72;100.00;100850.41;5565874;32;33964;-69
2023/01/06 01:58:08;;;;;;;;;;;;;;;7.77;100.00;100860.56;5565940;32;33815;-69
2023/01/06 02:01:15;;;;;;;;;;;;;;;7.62;100.00;100873.31;5553020;32;34942;-69
2023/01/06 02:04:24;;;;;;;;;;;;;;;7.47;100.00;100887.03;5566726;32;34158;-68
2023/01/06 02:07:33;;;;;;;;;;;;;;;7.43;100.00;100897.03;5566700;32;34406;-69
2023/01/06 02:10:41;;;;;;;;;;;;;;;7.61;100.00;100884.00;5565633;32;34704;-69
2023/01/06 02:13:49;;;;;;;;;;;;;;;7.84;100.00;100898.66;5566549;32;34131;-69
2023/01/06 02:17:03;;;;;;;;;;;;;;;7.89;100.00;100891.13;5552755;32;33962;-71
2023/01/06 02:20:10;;;;;;;;;;;;;;;7.82;100.00;100890.03;5566308;32;34952;-69
2023/01/06 02:23:23;;;;;;;;;;;;;;;7.92;100.00;100895.31;5565549;32;34761;-69
2023/01/06 02:26:52;;;;;;;;;;;;;;;7.82;100.00;100895.31;5565549;32;33877;-69
2023/01/06 02:30:04;;;;;;;;;;;;;;;7.85;100.00;100884.47;5566415;32;34712;-69
2023/01/06 02:33:21;;;;;;;;;;;;;;;7.95;100.00;100887.09;5565274;32;34992;-69
2023/01/06 02:36:35;;;;;;;;;;;;;;;7.90;100.00;100879.59;5552622;32;33155;-69
2023/01/06 02:40:01;;;;;;;;;;;;;;;7.76;100.00;100878.19;5565267;32;34868;-69
2023/01/06 02:43:28;;;;;;;;;;;;;;;7.70;100.00;100889.31;5565148;32;34426;-69
2023/01/06 02:46:42;;;;;;;;;;;;;;;7.64;100.00;100899.59;5564990;32;34950;-69
2023/01/06 02:50:07;;;;;;;;;;;;;;;7.64;100.00;100883.75;5564543;32;32963;-69
2023/01/06 02:53:25;;;;;;;;;;;;;;;7.54;100.00;100894.31;5567125;32;34152;-69
2023/01/06 02:56:39;;;;;;;;;;;;;;;7.56;100.00;100894.97;5568718;32;33724;-69
2023/01/06 02:59:52;;;;;;;;;;;;;;;7.62;100.00;100889.16;5567964;32;34373;-68
2023/01/06 03:03:03;;;;;;;;;;;;;;;7.66;100.00;100890.56;5555566;32;34128;-69
2023/01/06 03:06:13;;;;;;;;;;;;;;;7.56;100.00;100892.34;5567898;32;34449;-69
2023/01/06 03:09:22;;;;;;;;;;;;;;;7.56;100.00;100896.78;5567563;32;35544;-69
2023/01/06 03:12:45;;;;;;;;;;;;;;;7.43;100.00;100895.25;5568229;32;33962;-70
2023/01/06 03:15:54;;;;;;;;;;;;;;;7.29;100.00;100895.63;5554520;32;35469;-69
2023/01/06 03:19:06;;;;;;;;;;;;;;;7.22;100.00;100897.09;5568570;32;35563;-69
2023/01/06 03:22:16;;;;;;;;;;;;;;;7.24;100.00;100894.34;5567796;32;34782;-70
2023/01/06 03:25:25;;;;;;;;;;;;;;;7.41;100.00;100897.16;5567697;32;34116;-69
2023/01/06 03:28:33;;;;;;;;;;;;;;;7.25;100.00;100906.56;5568467;32;32779;-69
2023/01/06 03:31:42;;;;;;;;;;;;;;;7.18;100.00;100914.19;5568521;32;34934;-69
2023/01/06 03:34:52;;;;;;;;;;;;;;;7.23;100.00;100919.06;5568392;32;34321;-69
2023/01/06 03:38:01;;;;;;;;;;;;;;;7.19;100.00;100918.50;5568401;32;34912;-69
2023/01/06 03:41:23;;;;;;;;;;;;;;;7.23;100.00;100913.78;5567512;32;35012;-69
2023/01/06 03:44:42;;;;;;;;;;;;;;;7.07;100.00;100918.72;5568405;32;34568;-69
2023/01/06 03:47:57;;;;;;;;;;;;;;;6.97;100.00;100914.22;5554686;32;32675;-69
2023/01/06 03:51:10;;;;;;;;;;;;;;;7.19;100.00;100920.28;5567470;32;33964;-69
2023/01/06 03:54:28;;;;;;;;;;;;;;;7.20;100.00;100920.16;5554845;32;34784;-69
2023/01/06 03:57:43;;;;;;;;;;;;;;;6.99;100.00;100903.53;5554699;32;34530;-69
2023/01/06 04:00:52;;;;;;;;;;;;;;;7.02;100.00;100916.47;5567387;32;34320;-69
2023/01/06 04:04:01;;;;;;;;;;;;;;;6.93;100.00;100922.53;5567616;32;34360;-69
2023/01/06 04:07:09;;;;;;;;;;;;;;;6.94;100.00;100921.56;5528398;32;1199367;-69
2023/01/06 04:10:18;;;;;;;;;;;;;;;6.80;100.00;100935.09;5561624;32;33806;-69
2023/01/06 04:13:27;;;;;;;;;;;;;;;6.77;100.00;100938.84;5567282;32;34292;-69
2023/01/06 04:16:36;;;;;;;;;;;;;;;6.83;100.00;100937.47;5567982;32;34817;-69
2023/01/06 04:19:45;;;;;;;;;;;;;;;6.82;100.00;100939.28;5567277;32;33889;-69
2023/01/06 04:22:55;;;;;;;;;;;;;;;6.86;100.00;100945.13;5554759;32;34594;-69
2023/01/06 04:26:05;;;;;;;;;;;;;;;6.89;100.00;100947.50;5566789;32;33725;-70
2023/01/06 04:29:13;;;;;;;;;;;;;;;6.75;100.00;100951.31;5567786;32;35620;-69
2023/01/06 04:32:21;;;;;;;;;;;;;;;6.84;100.00;100947.03;5554481;32;34646;-69
2023/01/06 04:35:30;;;;;;;;;;;;;;;6.72;100.00;100938.37;5567811;32;34389;-69
2023/01/06 04:38:38;;;;;;;;;;;;;;;6.83;100.00;100954.12;5567770;32;34389;-69
2023/01/06 04:41:46;;;;;;;;;;;;;;;6.91;100.00;100945.56;5554646;32;34241;-69
2023/01/06 04:44:55;;;;;;;;;;;;;;;6.94;100.00;100943.50;5567800;32;34917;-69
2023/01/06 04:48:05;;;;;;;;;;;;;;;6.98;100.00;100949.34;5554467;32;34874;-68
2023/01/06 04:51:18;;;;;;;;;;;;;;;7.01;100.00;100956.19;5566766;32;32617;-69
2023/01/06 04:54:27;;;;;;;;;;;;;;;7.01;100.00;100948.25;5566733;32;34085;-68
2023/01/06 04:57:35;;;;;;;;;;;;;;;6.96;100.00;100949.50;5566789;32;33148;-69
2023/01/06 05:00:43;;;;;;;;;;;;;;;6.87;100.00;100963.44;5567445;32;34525;-69
2023/01/06 05:03:52;;;;;;;;;;;;;;;6.93;100.00;100965.56;5566498;32;32929;-70
2023/01/06 05:07:02;;;;;;;;;;;;;;;6.70;100.00;100981.66;5567545;32;32971;-69
2023/01/06 05:10:10;;;;;;;;;;;;;;;6.59;100.00;101001.00;5553841;32;34267;-70
2023/01/06 05:13:17;;;;;;;;;;;;;;;6.46;100.00;101001.19;5554288;32;33861;-70
2023/01/06 05:16:25;;;;;;;;;;;;;;;6.36;100.00;101020.50;5551622;32;33058;-70
2023/01/06 05:19:35;;;;;;;;;;;;;;;6.46;100.00;101027.53;5567294;32;34349;-70
2023/01/06 05:22:42;;;;;;;;;;;;;;;6.34;100.00;101035.62;5553960;32;33613;-70
2023/01/06 05:25:51;;;;;;;;;;;;;;;6.34;100.00;101025.88;5567265;32;34302;-70
2023/01/06 05:29:02;;;;;;;;;;;;;;;6.45;100.00;101031.13;5553241;32;33943;-70
2023/01/06 05:32:09;;;;;;;;;;;;;;;6.27;100.00;101024.72;5540695;32;32734;-70
2023/01/06 05:35:15;;;;;;;;;;;;;;;6.34;100.00;101020.63;5553344;32;34953;-70
2023/01/06 05:38:22;;;;;;;;;;;;;;;6.53;100.00;101026.06;5553909;32;33956;-69
2023/01/06 05:41:29;;;;;;;;;;;;;;;6.67;100.00;101032.03;5566998;32;34424;-69
2023/01/06 05:44:39;;;;;;;;;;;;;;;6.68;100.00;101028.44;5554120;32;34300;-70
2023/01/06 05:47:46;;;;;;;;;;;;;;;6.76;100.00;101028.62;5566986;32;34245;-70
2023/01/06 05:51:04;;;;;;;;;;;;;;;6.80;100.00;101032.66;5567046;32;34614;-70
2023/01/06 05:54:10;;;;;;;;;;;;;;;6.72;100.00;101035.12;5565128;32;34732;-69
2023/01/06 05:57:19;;;;;;;;;;;;;;;6.83;100.00;101048.22;5552474;32;32683;-68
2023/01/06 06:00:25;;;;;;;;;;;;;;;6.67;100.00;101056.59;5566505;31;33973;-70
2023/01/06 06:03:34;;;;;;;;;;;;;;;6.70;100.00;101066.03;5566292;32;33993;-69
2023/01/06 06:06:40;;;;;;;;;;;;;;;6.87;100.00;101060.22;5565054;32;34627;-70
2023/01/06 06:09:50;;;;;;;;;;;;;;;6.92;100.00;101065.94;5565550;32;34187;-69
2023/01/06 06:12:59;;;;;;;;;;;;;;;6.98;100.00;101060.13;5565703;32;34311;-69
2023/01/06 06:16:12;;;;;;;;;;;;;;;6.96;100.00;101062.09;5565601;32;34271;-69
2023/01/06 06:19:19;;;;;;;;;;;;;;;7.00;100.00;101055.59;5566407;32;34284;-69
2023/01/06 06:22:27;;;;;;;;;;;;;;;6.93;100.00;101059.69;5563677;32;34803;-70
2023/01/06 06:25:35;;;;;;;;;;;;;;;7.04;100.00;101054.34;5565733;32;34334;-69
2023/01/06 06:28:45;;;;;;;;;;;;;;;7.08;100.00;101068.97;5568643;32;34708;-69
2023/01/06 06:31:51;;;;;;;;;;;;;;;7.02;100.00;101071.28;5568107;32;34015;-69
2023/01/06 06:34:59;;;;;;;;;;;;;;;6.91;100.00;101067.75;5568483;32;34924;-69
2023/01/06 06:38:04;;;;;;;;;;;;;;;6.87;100.00;101082.13;5568710;32;34732;-69
2023/01/06 06:41:10;;;;;;;;;;;;;;;6.82;100.00;101078.22;5554713;32;33866;-69
2023/01/06 06:44:15;;;;;;;;;;;;;;;6.81;100.00;101101.13;5554895;32;34104;-69
2023/01/06 06:47:26;;;;;;;;;;;;;;;6.90;100.00;101092.44;5568718;32;35242;-70
2023/01/06 06:50:35;;;;;;;;;;;;;;;6.88;100.00;101102.25;5568570;32;34463;-69
2023/01/06 06:53:45;;;;;;;;;;;;;;;6.87;100.00;101092.69;5553963;32;33396;-70
2023/01/06 06:56:56;;;;;;;;;;;;;;;6.86;100.00;101104.22;5542405;32;32758;-70
2023/01/06 07:00:04;;;;;;;;;;;;;;;6.92;100.00;101102.88;5542473;32;34512;-69
2023/01/06 07:03:09;;;;;;;;;;;;;;;6.81;100.00;101109.03;5555270;32;34317;-69
2023/01/06 07:06:17;;;;;;;;;;;;;;;6.83;100.00;101111.53;5541732;32;33102;-70
2023/01/06 07:09:22;;;;;;;;;;;;;;;6.72;100.00;101115.06;5554417;32;34711;-69
2023/01/06 07:12:29;;;;;;;;;;;;;;;6.66;100.00;101120.81;5542271;32;33888;-69
2023/01/06 07:15:36;;;;;;;;;;;;;;;6.65;100.00;101127.06;5553817;32;32832;-69
2023/01/06 07:18:44;;;;;;;;;;;;;;;6.69;100.00;101130.25;5568379;32;34306;-69
2023/01/06 07:21:48;;;;;;;;;;;;;;;6.68;100.00;101132.06;5541881;32;33320;-69
2023/01/06 07:24:52;;;;;;;;;;;;;;;6.62;100.00;101137.84;5554172;32;33822;-71
2023/01/06 07:27:59;;;;;;;;;;;;;;;6.53;100.00;101139.41;5568125;31;33896;-70
2023/01/06 07:31:07;;;;;;;;;;;;;;;6.48;100.00;101138.13;5568355;32;34043;-70
2023/01/06 07:34:12;;;;;;;;;;;;;;;6.59;100.00;101135.44;5542344;32;35008;-70
2023/01/06 07:37:20;;;;;;;;;;;;;;;6.50;100.00;101134.41;5554812;32;34912;-70
2023/01/06 07:40:26;;;;;;;;;;;;;;;6.61;100.00;101128.25;5567698;32;34169;-70
2023/01/06 07:43:36;;;;;;;;;;;;;;;6.53;100.00;101136.78;5568025;32;34146;-69
2023/01/06 07:46:40;;;;;;;;;;;;;;;6.69;100.00;101139.00;5553927;32;33794;-70
2023/01/06 07:49:44;;;;;;;;;;;;;;;6.75;100.00;101141.16;5554404;32;34910;-70
2023/01/06 07:52:48;;;;;;;;;;;;;;;6.77;100.00;101133.97;5567741;32;34172;-69
2023/01/06 07:55:54;;;;;;;;;;;;;;;6.80;100.00;101135.50;5554663;32;34524;-70
2023/01/06 07:58:59;;;;;;;;;;;;;;;6.80;100.00;101138.16;5566951;32;34775;-70
2023/01/06 08:02:04;;;;;;;;;;;;;;;6.81;100.00;101148.59;5554241;32;34208;-70
2023/01/06 08:05:09;;;;;;;;;;;;;;;6.74;100.00;101147.41;5567451;32;34690;-69
2023/01/06 08:08:14;;;;;;;;;;;;;;;6.84;100.00;101160.66;5541204;32;34393;-70
2023/01/06 08:11:20;;;;;;;;;;;;;;;6.95;100.00;101152.72;5540867;32;33869;-70
2023/01/06 08:14:23;;;;;;;;;;;;;;;6.98;100.00;101171.78;5553360;32;33193;-70
2023/01/06 08:17:27;;;;;;;;;;;;;;;7.08;100.00;101166.56;5567621;32;34136;-70
2023/01/06 08:20:34;;;;;;;;;;;;;;;7.14;100.00;101165.25;5554260;32;34577;-70
2023/01/06 08:23:40;;;;;;;;;;;;;;;7.13;100.00;101153.00;5551545;32;34827;-71
2023/01/06 08:26:46;;;;;;;;;;;;;;;7.04;100.00;101151.13;5566775;32;33205;-70
2023/01/06 08:29:54;;;;;;;;;;;;;;;7.07;100.00;101135.06;5566921;32;32884;-70
2023/01/06 08:32:59;;;;;;;;;;;;;;;7.23;100.00;101141.56;5550402;32;33924;-70
2023/01/06 08:36:05;;;;;;;;;;;;;;;7.27;100.00;101131.59;5567575;32;34929;-70
2023/01/06 08:39:10;;;;;;;;;;;;;;;7.33;100.00;101120.53;5540976;32;33730;-71
2023/01/06 08:42:18;;;;;;;;;;;;;;;7.53;100.00;101126.75;5554388;32;34944;-71
2023/01/06 08:45:24;;;;;;;;;;;;;;;7.48;100.00;101124.50;5540275;32;34315;-70
2023/01/06 08:48:34;;;;;;;;;;;;;;;7.61;100.00;101135.69;5553998;32;34906;-70
2023/01/06 08:51:38;;;;;;;;;;;;;;;7.60;100.00;101114.72;5567362;32;34337;-70
2023/01/06 08:54:44;;;;;;;;;;;;;;;7.68;100.00;101126.31;5553783;32;34704;-69
2023/01/06 08:57:50;;;;;;;;;;;;;;;7.84;100.00;101128.47;5553962;32;34194;-69
2023/01/06 09:00:57;;;;;;;;;;;;;;;7.98;100.00;101125.47;5567581;32;34775;-70
2023/01/06 09:04:05;;;;;;;;;;;;;;;8.07;100.00;101123.84;5553345;32;33040;-69
2023/01/06 09:07:12;;;;;;;;;;;;;;;8.03;100.00;101125.06;5553916;32;34439;-70
2023/01/06 09:10:22;;;;;;;;;;;;;;;8.09;100.00;101124.50;5554159;32;34433;-70
2023/01/06 09:13:29;;;;;;;;;;;;;;;8.04;100.00;101129.38;5554058;32;34512;-69
2023/01/06 09:16:35;;;;;;;;;;;;;;;7.93;100.00;101143.53;5553321;32;34355;-70
2023/01/06 09:19:40;;;;;;;;;;;;;;;8.03;100.00;101147.06;5556437;32;34907;-69
2023/01/06 09:22:46;;;;;;;;;;;;;;;8.18;100.00;101158.91;5547821;32;34971;-69
2023/01/06 09:25:55;;;;;;;;;;;;;;;8.34;100.00;101162.91;5533867;32;34091;-70
2023/01/06 09:29:02;;;;;;;;;;;;;;;8.49;100.00;101158.91;5546500;32;35110;-70
2023/01/06 09:32:09;;;;;;;;;;;;;;;8.45;100.00;101155.72;5546510;32;33879;-70
2023/01/06 09:35:14;;;;;;;;;;;;;;;8.51;100.00;101152.53;5533561;32;33081;-70
2023/01/06 09:38:20;;;;;;;;;;;;;;;8.77;100.00;101162.56;5546607;32;34957;-70
2023/01/06 09:41:32;;;;;;;;;;;;;;;8.76;100.00;101155.63;5546477;32;34916;-70
2023/01/06 09:44:49;;;;;;;;;;;;;;;8.83;100.00;101157.59;5545895;32;33023;-70
2023/01/06 09:47:57;;;;;;;;;;;;;;;8.95;100.00;101160.94;5533497;32;33967;-70
2023/01/06 09:51:04;;;;;;;;;;;;;;;9.14;100.00;101163.59;5545927;32;33974;-70
2023/01/06 09:54:08;;;;;;;;;;;;;;;9.12;100.00;101154.94;5546784;32;34534;-70
2023/01/06 09:57:19;;;;;;;;;;;;;;;9.31;100.00;101162.06;5547622;32;34074;-69
2023/01/06 10:00:43;;;;;;;;;;;;;;;9.33;99.28;101166.25;5552065;32;34492;-70
2023/01/06 10:03:48;;;;;;;;;;;;;;;9.38;97.52;101166.66;5547981;32;34801;-69
2023/01/06 10:06:51;;;;;;;;;;;;;;;8.99;99.29;101159.69;5535382;32;32922;-69
2023/01/06 10:10:04;;;;;;;;;;;;;;;8.92;96.90;101166.50;5547892;32;33763;-70
2023/01/06 10:13:28;;;;;;;;;;;;;;;8.91;95.83;101167.47;5547934;32;35401;-69
2023/01/06 10:16:44;;;;;;;;;;;;;;;8.75;97.59;101160.09;5554878;32;34299;-69
2023/01/06 10:20:11;;;;;;;;;;;;;;;8.58;98.06;101151.00;5568708;32;34265;-69
2023/01/06 10:23:21;;;;;;;;;;;;;;;8.57;100.00;101149.31;5556609;32;34708;-69
2023/01/06 10:26:28;;;;;;;;;;;;;;;8.40;100.00;101136.75;5568347;32;34706;-70
2023/01/06 10:29:34;;;;;;;;;;;;;;;8.62;100.00;101146.25;5567652;32;34281;-70
2023/01/06 10:32:38;;;;;;;;;;;;;;;8.58;100.00;101143.06;5554889;32;32943;-68
2023/01/06 10:35:45;;;;;;;;;;;;;;;8.58;99.93;101140.41;5554418;32;34119;-69
2023/01/06 10:38:49;;;;;;;;;;;;;;;8.50;100.00;101134.97;5534586;32;33392;-68
2023/01/06 10:42:54;;;;;;;;;;;;;;;8.48;97.90;101136.06;5535592;32;33164;-69
2023/01/06 10:45:40;;;;;;;;;;;;;;;8.71;97.69;101133.06;5548107;32;34504;-69
2023/01/06 10:48:48;;;;;;;;;;;;;;;8.88;96.61;101139.50;5549120;32;34355;-70
2023/01/06 10:51:55;;;;;;;;;;;;;;;8.91;94.08;101136.56;5535583;32;34626;-71
2023/01/06 10:55:02;;;;;;;;;;;;;;;9.10;94.16;101127.81;5548160;32;34100;-70
2023/01/06 10:58:19;;;;;;;;;;;;;;;9.31;93.25;101130.28;5535152;32;34126;-70
2023/01/06 11:01:27;;;;;;;;;;;;;;;9.03;93.29;101140.75;5535329;32;34100;-70
2023/01/06 11:04:32;;;;;;;;;;;;;;;9.04;93.46;101145.06;5553999;32;34319;-70
2023/01/06 11:07:44;;;;;;;;;;;;;;;9.03;92.37;101132.81;5568576;32;34702;-70
2023/01/06 11:10:49;;;;;;;;;;;;;;;9.20;91.13;101141.03;5554405;32;34590;-70
2023/01/06 11:13:58;;;;;;;;;;;;;;;9.18;92.18;101129.75;5567453;32;33138;-70
2023/01/06 11:17:05;;;;;;;;;;;;;;;9.30;91.19;101125.94;5565669;32;34164;-70
2023/01/06 11:20:12;;;;;;;;;;;;;;;9.21;90.45;101127.63;5536540;32;34398;-70
2023/01/06 11:23:21;;;;;;;;;;;;;;;9.03;91.57;101124.03;5534882;32;33376;-70
2023/01/06 11:26:27;;;;;;;;;;;;;;;9.07;92.34;101128.06;5548842;32;34280;-70
2023/01/06 11:29:32;;;;;;;;;;;;;;;9.24;90.24;101123.88;5547670;32;33278;-70
2023/01/06 11:32:36;;;;;;;;;;;;;;;9.34;89.03;101124.72;5536137;32;34569;-70
2023/01/06 11:35:43;;;;;;;;;;;;;;;9.36;90.02;101123.59;5548823;32;34463;-70
2023/01/06 11:38:54;;;;;;;;;;;;;;;9.45;89.01;101127.19;5553631;32;33041;-70
2023/01/06 11:42:04;;;;;;;;;;;;;;;9.69;90.28;101119.59;5567993;32;34913;-70
2023/01/06 11:45:30;;;;;;;;;;;;;;;9.66;90.61;101117.25;5567800;32;34957;-70
2023/01/06 11:48:42;;;;;;;;;;;;;;;9.57;90.19;101121.59;5555127;32;34486;-70
2023/01/06 11:51:50;;;;;;;;;;;;;;;9.56;87.59;101122.56;5554564;32;35496;-70
2023/01/06 11:55:01;;;;;;;;;;;;;;;9.41;88.72;101117.84;5553453;32;32832;-70
2023/01/06 11:58:20;;;;;;;;;;;;;;;9.63;87.97;101127.31;5554029;32;34229;-69
2023/01/06 12:01:36;;;;;;;;;;;;;;;9.89;87.76;101121.22;5554619;32;34189;-71
2023/01/06 12:04:45;;;;;;;;;;;;;;;9.80;87.06;101116.78;5556357;32;34632;-69
2023/01/06 12:07:56;;;;;;;;;;;;;;;9.88;88.91;101118.69;5554903;32;34389;-70
2023/01/06 12:11:22;;;;;;;;;;;;;;;9.75;88.97;101104.94;5566619;32;33024;-70
2023/01/06 12:14:29;;;;;;;;;;;;;;;9.58;90.81;101094.09;5568017;31;37008;-69
2023/01/06 12:17:39;;;;;;;;;;;;;;;9.80;88.95;101089.44;5552469;32;34281;-70
2023/01/06 12:20:48;;;;;;;;;;;;;;;10.14;89.39;101084.41;5553584;32;34639;-70
2023/01/06 12:23:56;;;;;;;;;;;;;;;10.48;85.44;101082.84;5567165;32;34796;-70
2023/01/06 12:27:03;;;;;;;;;;;;;;;10.36;84.20;101071.59;5567728;32;34816;-70
2023/01/06 12:30:16;;;;;;;;;;;;;;;10.28;84.76;101071.50;5540804;32;33081;-70
2023/01/06 12:33:40;;;;;;;;;;;;;;;10.51;78.37;101071.91;5553569;32;32822;-70
2023/01/06 12:36:49;;;;;;;;;;;;;;;10.73;79.33;101074.13;5541501;32;33443;-71
2023/01/06 12:40:00;;;;;;;;;;;;;;;10.55;78.37;101067.16;5554369;32;34820;-71
2023/01/06 12:43:21;;;;;;;;;;;;;;;10.84;79.94;101075.75;5554595;32;34834;-71
2023/01/06 12:46:33;;;;;;;;;;;;;;;10.79;79.32;101078.84;5567368;32;34878;-71
2023/01/06 12:49:46;;;;;;;;;;;;;;;10.54;80.04;101074.28;5567876;32;34599;-70
2023/01/06 12:52:58;;;;;;;;;;;;;;;10.40;81.83;101067.69;5540180;32;35030;-69
2023/01/06 12:56:31;;;;;;;;;;;;;;;10.17;85.23;101060.28;5536045;32;32532;-72
2023/01/06 12:59:45;;;;;;;;;;;;;;;10.29;84.46;101051.97;5547153;32;34090;-69
2023/01/06 13:02:53;;;;;;;;;;;;;;;10.33;83.86;101047.19;5540628;32;34579;-68
2023/01/06 13:06:12;;;;;;;;;;;;;;;10.29;84.87;101051.13;5552160;32;33031;-69
2023/01/06 13:09:30;;;;;;;;;;;;;;;10.47;83.26;101059.94;5567224;32;33976;-69
2023/01/06 13:13:00;;;;;;;;;;;;;;;10.31;84.00;101047.34;5536342;32;33008;-69
2023/01/06 13:16:17;;;;;;;;;;;;;;;10.03;86.46;101058.91;5547646;32;33930;-69
2023/01/06 13:19:26;;;;;;;;;;;;;;;10.05;87.07;101043.72;5547831;32;34593;-69
2023/01/06 13:22:40;;;;;;;;;;;;;;;10.04;86.91;101042.88;5546975;32;34253;-70
2023/01/06 13:26:05;;;;;;;;;;;;;;;10.17;86.85;101049.66;5546797;32;33295;-70
2023/01/06 13:29:10;;;;;;;;;;;;;;;10.09;88.16;101053.03;5546197;32;34507;-70
2023/01/06 13:32:28;;;;;;;;;;;;;;;10.09;88.03;101054.84;5534256;32;32907;-70
2023/01/06 13:35:38;;;;;;;;;;;;;;;10.10;87.05;101061.81;5546812;32;34267;-70
2023/01/06 13:38:51;;;;;;;;;;;;;;;9.92;88.45;101062.59;5533474;32;34215;-70
2023/01/06 13:42:00;;;;;;;;;;;;;;;9.81;90.16;101062.81;5533556;32;32943;-70
2023/01/06 13:45:09;;;;;;;;;;;;;;;9.75;91.45;101059.91;5546711;32;34744;-70
2023/01/06 13:48:18;;;;;;;;;;;;;;;9.98;90.94;101066.47;5535912;32;33939;-70
2023/01/06 13:51:27;;;;;;;;;;;;;;;10.12;90.69;101067.84;5557241;32;35028;-70
2023/01/06 13:54:39;;;;;;;;;;;;;;;10.39;87.86;101058.06;5546351;32;34750;-70
2023/01/06 13:57:44;;;;;;;;;;;;;;;9.98;90.00;101051.41;5546154;32;35075;-70
2023/01/06 14:01:08;;;;;;;;;;;;;;;9.92;92.43;101054.66;5546209;32;34808;-70
2023/01/06 14:04:41;;;;;;;;;;;;;;;10.07;91.82;101052.34;5547210;32;34254;-70
2023/01/06 14:07:58;;;;;;;;;;;;;;;9.87;90.80;101037.53;5547085;32;34710;-71
2023/01/06 14:11:20;;;;;;;;;;;;;;;9.79;90.92;101040.91;5539438;32;33448;-69
2023/01/06 14:14:28;;;;;;;;;;;;;;;9.72;92.01;101039.00;5552234;32;32768;-70
2023/01/06 14:17:41;;;;;;;;;;;;;;;9.58;92.12;101037.66;5553264;32;34167;-71
2023/01/06 14:20:57;;;;;;;;;;;;;;;9.67;93.77;101028.00;5565907;32;34275;-70
2023/01/06 14:24:18;;;;;;;;;;;;;;;9.53;93.77;101024.88;5564944;32;34236;-70
2023/01/06 14:27:42;;;;;;;;;;;;;;;9.41;94.39;101030.47;5563895;32;34412;-70
2023/01/06 14:30:49;;;;;;;;;;;;;;;9.30;95.13;101031.47;5564589;32;34376;-70
2023/01/06 14:34:02;;;;;;;;;;;;;;;9.18;97.24;101032.63;5565059;32;34516;-70
2023/01/06 14:37:12;;;;;;;;;;;;;;;9.20;97.73;101033.31;5538058;32;32885;-70
2023/01/06 14:40:24;;;;;;;;;;;;;;;9.24;97.92;101033.87;5552012;32;34243;-70
2023/01/06 14:43:49;;;;;;;;;;;;;;;9.18;97.67;101035.28;5565854;32;33832;-70
2023/01/06 14:47:11;;;;;;;;;;;;;;;9.08;99.70;101043.22;5551670;32;34426;-70
2023/01/06 14:50:28;;;;;;;;;;;;;;;8.76;100.00;101044.53;5543096;32;35248;-70
2023/01/06 14:53:56;;;;;;;;;;;;;;;8.60;100.00;101032.69;5554446;32;33525;-70
2023/01/06 14:57:05;;;;;;;;;;;;;;;8.44;100.00;101031.56;5567874;32;34768;-70
2023/01/06 15:00:17;;;;;;;;;;;;;;;8.31;100.00;101037.13;5560025;32;33943;-69
2023/01/06 15:03:24;;;;;;;;;;;;;;;8.17;100.00;101038.31;5548751;32;35119;-70
2023/01/06 15:06:30;;;;;;;;;;;;;;;8.03;100.00;101036.06;5548632;32;34068;-69
2023/01/06 15:09:39;;;;;;;;;;;;;;;7.87;100.00;101036.56;5555233;32;34165;-69
2023/01/06 15:12:49;;;;;;;;;;;;;;;7.68;100.00;101041.78;5553557;32;33376;-69
2023/01/06 15:16:10;;;;;;;;;;;;;;;7.53;100.00;101042.28;5567592;32;34346;-70
2023/01/06 15:19:17;;;;;;;;;;;;;;;7.37;100.00;101040.94;5567721;32;35502;-70
2023/01/06 15:22:26;;;;;;;;;;;;;;;7.22;100.00;101034.31;5541507;32;32782;-69
2023/01/06 15:25:37;;;;;;;;;;;;;;;7.09;100.00;101028.44;5568304;32;34930;-68
2023/01/06 15:28:54;;;;;;;;;;;;;;;6.98;100.00;101028.47;5567839;32;34656;-69
2023/01/06 15:32:00;;;;;;;;;;;;;;;6.88;100.00;101022.31;5554113;32;33127;-70
2023/01/06 15:35:13;;;;;;;;;;;;;;;6.85;100.00;101033.13;5567865;32;34975;-68
2023/01/06 15:38:27;;;;;;;;;;;;;;;6.78;100.00;101021.41;5567711;32;34798;-69
2023/01/06 15:41:39;;;;;;;;;;;;;;;6.89;100.00;101024.81;5549379;32;32974;-69
2023/01/06 15:44:55;;;;;;;;;;;;;;;6.78;100.00;101024.88;5553990;32;34937;-69
2023/01/06 15:48:09;;;;;;;;;;;;;;;6.72;100.00;101021.94;5553524;32;33450;-69
2023/01/06 15:51:15;;;;;;;;;;;;;;;6.62;100.00;101019.22;5567563;32;35044;-69
2023/01/06 15:54:21;;;;;;;;;;;;;;;6.68;100.00;101028.44;5541392;32;35327;-69
2023/01/06 15:57:29;;;;;;;;;;;;;;;6.62;100.00;101039.47;5566670;32;32689;-70
2023/01/06 16:00:43;;;;;;;;;;;;;;;6.58;100.00;101032.78;5566696;32;34864;-70
2023/01/06 16:03:58;;;;;;;;;;;;;;;6.50;100.00;101034.22;5568164;32;34217;-69
2023/01/06 16:07:25;;;;;;;;;;;;;;;6.45;100.00;101033.78;5567791;32;34398;-71
2023/01/06 16:10:36;;;;;;;;;;;;;;;6.47;100.00;101033.66;5543630;32;34782;-68
2023/01/06 16:13:53;;;;;;;;;;;;;;;6.43;100.00;101040.16;5566851;31;34304;-70
2023/01/06 16:17:10;;;;;;;;;;;;;;;6.46;100.00;101051.25;5567237;32;34778;-69
2023/01/06 16:20:24;;;;;;;;;;;;;;;6.70;100.00;101044.94;5567723;32;34642;-68